KFRH/FRH METAR and TAF weather

Enter ICAO airport designator
Station Type Date Time Source
KFRH METAR 2018/12/13 21:15 UTC NOAA

KFRH 132115Z AUTO 12006KT 10SM OVC090 11/03 A3005 RMK AO1


Station Type Date Time Source
KFRH Decoded METAR 2018/12/13 21:15 UTC NOAA

Station name not available
Dec 13, 2018 - 04:15 PM EST / 2018.12.13 2115 UTC
Wind: from the ESE (120 degrees) at 7 MPH (6 KT):0
Visibility: 10 mile(s):0
Sky conditions: overcast
Temperature: 51 F (11 C)
Dew Point: 37 F (3 C)
Relative Humidity: 57%
Pressure (altimeter): 30.05 in. Hg (1017 hPa)
ob: KFRH 132115Z AUTO 12006KT 10SM OVC090 11/03 A3005 RMK AO1
cycle: 21

Station Type Date Time Source
KFRH TAF UTC NOAA

Error!


Example: see airport list